Time;durP1;ratioP1;P1;durP2;ratioP2;P2;SDS_P1;SDS_P2;PMS_P1;PMS_P2;Temp;Humidity;BMP_temperature;BMP_pressure;BME280_temperature;BME280_humidity;BME280_pressure;Samples;Min_cycle;Max_cycle;Signal;HPM_P1;HPM_P2
2023/05/11 00:04:52;;;;;;;3.03;2.00;;;14.90;43.30;;;;;;10502901;28;20269;-73
2023/05/11 00:09:55;;;;;;;3.03;1.90;;;14.90;43.80;;;;;;10501287;28;20630;-73
2023/05/11 00:14:59;;;;;;;2.07;1.93;;;14.90;43.40;;;;;;10496756;28;20232;-73
2023/05/11 00:20:04;;;;;;;1.53;1.43;;;14.80;43.60;;;;;;10504036;28;20299;-75
2023/05/11 00:25:08;;;;;;;2.53;1.60;;;14.80;44.20;;;;;;10480196;28;20244;-75
2023/05/11 00:30:13;;;;;;;1.67;1.57;;;14.80;43.80;;;;;;10464053;28;20232;-72
2023/05/11 00:35:18;;;;;;;1.70;1.60;;;14.80;44.00;;;;;;10467780;28;20312;-73
2023/05/11 00:40:21;;;;;;;1.73;1.60;;;14.80;44.20;;;;;;10465931;28;20252;-73
2023/05/11 00:45:24;;;;;;;1.60;1.50;;;14.70;43.90;;;;;;10469286;28;20236;-73
2023/05/11 00:50:29;;;;;;;2.13;1.90;;;14.70;44.10;;;;;;10469747;28;20836;-73
2023/05/11 00:55:32;;;;;;;2.33;2.00;;;14.70;44.10;;;;;;10466539;28;20225;-74
2023/05/11 01:00:36;;;;;;;1.90;1.80;;;14.70;44.80;;;;;;10464264;28;20229;-74
2023/05/11 01:05:45;;;;;;;1.80;1.70;;;14.70;44.10;;;;;;10472890;28;20602;-74
2023/05/11 01:10:56;;;;;;;1.83;1.67;;;14.60;44.30;;;;;;10466599;28;20290;-72
2023/05/11 01:16:05;;;;;;;2.60;1.63;;;14.60;44.00;;;;;;10469033;28;20232;-73
2023/05/11 01:21:13;;;;;;;1.83;1.73;;;14.60;44.00;;;;;;10469877;28;20262;-74
2023/05/11 01:26:35;;;;;;;1.80;1.70;;;14.60;44.40;;;;;;10467460;28;20231;-73
2023/05/11 01:31:42;;;;;;;1.90;1.80;;;14.60;45.10;;;;;;10466059;28;20224;-74
2023/05/11 01:36:52;;;;;;;1.80;1.70;;;14.50;44.60;;;;;;10466934;28;20252;-73
2023/05/11 01:41:57;;;;;;;1.80;1.70;;;14.50;44.90;;;;;;10465346;28;20224;-73
2023/05/11 01:47:03;;;;;;;1.90;1.80;;;14.60;44.10;;;;;;10497512;28;21010;-76
2023/05/11 01:52:08;;;;;;;1.73;1.63;;;14.60;44.70;;;;;;10509729;28;20231;-74
2023/05/11 01:57:12;;;;;;;1.53;1.43;;;14.60;44.40;;;;;;10505121;28;20711;-73
2023/05/11 02:02:18;;;;;;;2.00;1.73;;;14.60;44.30;;;;;;10501206;28;20211;-73
2023/05/11 02:07:23;;;;;;;2.03;1.73;;;14.70;44.80;;;;;;10507118;28;20243;-73
2023/05/11 02:12:27;;;;;;;1.60;1.50;;;14.70;44.10;;;;;;10506804;28;20224;-73
2023/05/11 02:17:33;;;;;;;1.33;1.33;;;14.60;44.10;;;;;;10496120;28;20235;-74
2023/05/11 02:22:38;;;;;;;1.70;1.60;;;14.60;44.60;;;;;;10471571;28;20693;-74
2023/05/11 02:27:41;;;;;;;1.80;1.47;;;14.60;44.10;;;;;;10468106;28;20236;-74
2023/05/11 02:32:51;;;;;;;2.40;1.40;;;14.60;44.10;;;;;;10467118;28;20224;-73
2023/05/11 02:37:59;;;;;;;1.87;1.77;;;14.50;45.20;;;;;;10468223;28;20292;-73
2023/05/11 02:43:09;;;;;;;1.50;1.40;;;14.50;45.10;;;;;;10501967;28;20436;-74
2023/05/11 02:48:22;;;;;;;1.77;1.67;;;14.50;45.30;;;;;;10500624;28;21115;-73
2023/05/11 02:53:28;;;;;;;1.80;1.70;;;14.50;45.60;;;;;;10502113;28;20231;-74
2023/05/11 02:58:35;;;;;;;2.57;1.60;;;14.50;45.10;;;;;;10505200;28;20235;-73
2023/05/11 03:03:39;;;;;;;1.70;1.60;;;14.50;44.70;;;;;;10502465;28;20219;-73
2023/05/11 03:08:43;;;;;;;2.00;1.70;;;14.40;45.00;;;;;;10497513;28;20235;-74
2023/05/11 03:13:46;;;;;;;1.60;1.50;;;14.40;44.70;;;;;;10505754;28;20223;-74
2023/05/11 03:18:53;;;;;;;1.63;1.53;;;14.40;44.90;;;;;;10501304;28;20270;-74
2023/05/11 03:23:57;;;;;;;1.83;1.60;;;14.40;45.40;;;;;;10504267;28;20239;-73
2023/05/11 03:29:02;;;;;;;2.13;1.90;;;14.40;45.00;;;;;;10463200;28;20619;-74
2023/05/11 03:34:06;;;;;;;1.90;1.80;;;14.40;45.20;;;;;;10462433;28;20255;-74
2023/05/11 03:39:12;;;;;;;1.90;1.80;;;14.40;45.30;;;;;;10461335;28;20753;-74
2023/05/11 03:44:18;;;;;;;2.07;1.97;;;14.40;45.40;;;;;;10460663;28;20220;-74
2023/05/11 03:49:24;;;;;;;1.90;1.80;;;14.40;45.20;;;;;;10462861;28;20254;-73
2023/05/11 03:54:27;;;;;;;1.90;1.80;;;14.40;45.40;;;;;;10468089;28;20236;-74
2023/05/11 03:59:33;;;;;;;1.80;1.70;;;14.40;45.10;;;;;;10465417;28;20227;-75
2023/05/11 04:04:38;;;;;;;1.90;1.80;;;14.40;45.80;;;;;;10454920;28;20229;-74
2023/05/11 04:09:41;;;;;;;2.13;2.03;;;14.40;45.70;;;;;;10454956;28;20235;-74
2023/05/11 04:14:44;;;;;;;2.20;2.07;;;14.40;45.40;;;;;;10464856;28;20578;-74
2023/05/11 04:19:49;;;;;;;2.10;2.00;;;14.40;45.40;;;;;;10469675;28;20240;-74
2023/05/11 04:24:52;;;;;;;2.23;2.13;;;14.50;45.80;;;;;;10467208;28;20289;-73
2023/05/11 04:29:55;;;;;;;2.30;2.10;;;14.50;45.30;;;;;;10467780;28;20224;-74
2023/05/11 04:34:59;;;;;;;2.23;2.10;;;14.50;45.40;;;;;;10467245;28;20232;-74
2023/05/11 04:40:03;;;;;;;2.60;2.00;;;14.40;45.90;;;;;;10464512;28;20236;-75
2023/05/11 04:45:07;;;;;;;1.90;1.80;;;14.50;45.60;;;;;;10468447;28;20232;-74
2023/05/11 04:50:12;;;;;;;2.30;2.20;;;14.50;45.70;;;;;;10484838;28;20370;-74
2023/05/11 04:55:15;;;;;;;2.30;2.20;;;14.40;45.90;;;;;;10502377;28;20703;-75
2023/05/11 05:00:20;;;;;;;2.60;2.40;;;14.50;45.60;;;;;;10502521;28;20603;-75
2023/05/11 05:05:25;;;;;;;2.43;2.30;;;14.50;45.80;;;;;;10500137;28;20224;-74
2023/05/11 05:10:28;;;;;;;2.87;2.17;;;14.40;46.10;;;;;;10498945;28;20231;-75
2023/05/11 05:15:31;;;;;;;2.30;2.20;;;14.40;45.90;;;;;;10503159;28;20665;-74
2023/05/11 05:20:35;;;;;;;2.23;2.13;;;14.50;46.10;;;;;;10505721;28;20762;-74
2023/05/11 05:25:39;;;;;;;2.47;2.27;;;14.50;46.40;;;;;;10504786;28;20227;-73
2023/05/11 05:30:42;;;;;;;2.40;2.20;;;14.50;46.10;;;;;;10497312;28;20231;-74
2023/05/11 05:35:46;;;;;;;2.40;2.20;;;14.50;46.00;;;;;;10502468;28;20727;-72
2023/05/11 05:40:49;;;;;;;2.17;2.03;;;14.60;46.50;;;;;;10497516;28;20228;-73
2023/05/11 05:45:53;;;;;;;3.07;1.97;;;14.60;46.10;;;;;;10499838;28;21059;-73
2023/05/11 05:50:59;;;;;;;2.20;2.10;;;14.60;46.00;;;;;;10499983;28;20228;-73
2023/05/11 05:56:02;;;;;;;2.30;2.10;;;14.70;46.40;;;;;;10497482;28;20867;-74
2023/05/11 06:01:05;;;;;;;2.67;2.47;;;14.70;45.90;;;;;;10497451;28;20739;-74
2023/05/11 06:06:09;;;;;;;2.50;2.30;;;14.70;46.00;;;;;;10499509;28;20274;-75
2023/05/11 06:11:13;;;;;;;3.40;3.10;;;14.70;46.30;;;;;;10495880;28;20638;-74
2023/05/11 06:16:16;;;;;;;3.07;2.80;;;14.70;46.00;;;;;;10490419;28;20232;-74
2023/05/11 06:21:20;;;;;;;2.63;2.43;;;14.70;46.20;;;;;;10490672;28;20231;-73
2023/05/11 06:26:23;;;;;;;2.60;2.40;;;14.80;46.70;;;;;;10458894;28;21071;-74
2023/05/11 06:31:28;;;;;;;2.53;2.33;;;14.80;46.20;;;;;;10465547;28;20242;-73
2023/05/11 06:36:33;;;;;;;2.20;2.10;;;14.80;46.50;;;;;;10490064;28;20220;-73
2023/05/11 06:41:36;;;;;;;2.20;2.10;;;14.80;46.70;;;;;;10487144;28;20814;-73
2023/05/11 06:46:39;;;;;;;2.30;2.20;;;14.80;46.10;;;;;;10489420;28;20711;-73
2023/05/11 06:51:44;;;;;;;2.30;2.03;;;14.80;46.50;;;;;;10490727;28;20227;-73
2023/05/11 06:56:47;;;;;;;2.23;2.10;;;14.80;46.80;;;;;;10490818;28;20228;-73
2023/05/11 07:01:50;;;;;;;2.20;2.10;;;14.90;46.40;;;;;;10490306;28;20235;-74
2023/05/11 07:06:55;;;;;;;2.37;2.20;;;14.90;46.50;;;;;;10479488;28;20219;-73
2023/05/11 07:11:58;;;;;;;2.40;2.20;;;14.90;46.90;;;;;;10479700;28;20242;-74
2023/05/11 07:17:01;;;;;;;3.20;2.40;;;15.00;46.60;;;;;;10483140;28;20761;-74
2023/05/11 07:22:06;;;;;;;2.20;2.00;;;15.00;46.60;;;;;;10487719;28;20462;-73
2023/05/11 07:27:09;;;;;;;2.47;2.33;;;15.00;46.80;;;;;;10451155;28;20869;-73
2023/05/11 07:32:12;;;;;;;2.00;1.90;;;15.00;46.50;;;;;;10438772;28;20225;-74
2023/05/11 07:37:17;;;;;;;2.10;2.00;;;15.00;46.70;;;;;;10441315;28;20262;-74
2023/05/11 07:42:20;;;;;;;2.07;1.97;;;15.00;47.10;;;;;;10438360;28;20236;-72
2023/05/11 07:47:24;;;;;;;1.80;1.70;;;15.00;46.70;;;;;;10439395;28;20232;-73
2023/05/11 07:52:28;;;;;;;1.90;1.80;;;15.10;46.60;;;;;;10439402;28;20273;-73
2023/05/11 07:57:31;;;;;;;2.00;1.90;;;15.10;47.10;;;;;;10441953;28;20236;-73
2023/05/11 08:02:35;;;;;;;2.30;2.10;;;15.10;46.60;;;;;;10441264;28;20312;-73
2023/05/11 08:07:40;;;;;;;1.93;1.70;;;15.10;46.80;;;;;;10440982;28;20247;-73
2023/05/11 08:12:44;;;;;;;2.00;1.80;;;15.20;47.00;;;;;;10441531;28;20890;-73
2023/05/11 08:17:47;;;;;;;2.07;1.87;;;15.20;46.60;;;;;;10446207;28;20224;-73
2023/05/11 08:22:51;;;;;;;1.90;1.80;;;15.20;46.50;;;;;;10445729;28;20254;-73
2023/05/11 08:27:55;;;;;;;1.90;1.80;;;15.20;46.80;;;;;;10444924;28;20247;-73
2023/05/11 08:32:58;;;;;;;1.60;1.50;;;15.20;46.30;;;;;;10446308;28;20232;-73
2023/05/11 08:38:03;;;;;;;1.73;1.63;;;15.20;46.50;;;;;;10449794;28;20224;-73
2023/05/11 08:43:06;;;;;;;2.30;2.10;;;15.20;46.80;;;;;;10472416;28;20220;-73
2023/05/11 08:48:10;;;;;;;2.10;2.00;;;15.20;46.80;;;;;;10475091;28;21210;-73
2023/05/11 08:53:15;;;;;;;1.70;1.60;;;15.20;46.80;;;;;;10475537;28;20219;-73
2023/05/11 08:58:21;;;;;;;1.50;1.40;;;15.20;47.60;;;;;;10481215;28;20232;-73
2023/05/11 09:03:24;;;;;;;1.67;1.57;;;15.20;46.70;;;;;;10474394;28;20913;-72
2023/05/11 09:08:30;;;;;;;1.63;1.50;;;15.20;46.70;;;;;;10481415;28;20322;-73
2023/05/11 09:13:33;;;;;;;1.93;1.83;;;15.30;47.10;;;;;;10482892;28;20228;-73
2023/05/11 09:18:45;;;;;;;1.63;1.53;;;15.30;46.80;;;;;;10483609;28;20224;-73
2023/05/11 09:23:51;;;;;;;1.60;1.50;;;15.30;46.80;;;;;;10478594;28;20232;-73
2023/05/11 09:28:57;;;;;;;1.77;1.67;;;15.30;46.80;;;;;;10476857;28;20232;-73
2023/05/11 09:34:16;;;;;;;2.00;1.90;;;15.30;47.30;;;;;;10471850;28;20225;-73
2023/05/11 09:39:28;;;;;;;1.80;1.70;;;15.30;47.60;;;;;;10475628;28;20239;-72
2023/05/11 09:44:47;;;;;;;1.60;1.50;;;15.30;48.10;;;;;;10474475;28;20227;-73
2023/05/11 09:49:50;;;;;;;1.50;1.40;;;15.40;47.10;;;;;;10476675;28;20708;-73
2023/05/11 09:54:54;;;;;;;1.40;1.30;;;15.40;46.80;;;;;;10489955;28;20228;-73
2023/05/11 10:00:00;;;;;;;1.53;1.40;;;15.40;47.10;;;;;;10487866;28;20227;-73
2023/05/11 10:05:12;;;;;;;1.50;1.40;;;15.40;46.70;;;;;;10486584;28;20224;-73
2023/05/11 10:10:17;;;;;;;1.20;1.20;;;15.40;47.30;;;;;;10487455;28;20231;-73
2023/05/11 10:15:24;;;;;;;1.23;1.17;;;15.40;47.20;;;;;;10483720;28;20233;-73
2023/05/11 10:20:27;;;;;;;1.70;1.60;;;15.40;46.70;;;;;;10490698;28;20751;-73
2023/05/11 10:25:33;;;;;;;1.80;1.70;;;15.40;46.70;;;;;;10485518;28;20339;-73
2023/05/11 10:30:37;;;;;;;1.97;1.87;;;15.40;47.50;;;;;;10484961;28;20235;-73
2023/05/11 10:35:42;;;;;;;2.30;2.20;;;15.40;47.00;;;;;;10488697;28;20224;-73
2023/05/11 10:40:47;;;;;;;2.50;2.30;;;15.40;47.40;;;;;;10484789;28;20243;-73
2023/05/11 10:45:56;;;;;;;1.60;1.50;;;15.40;47.30;;;;;;10451793;28;20231;-73
2023/05/11 10:51:26;;;;;;;1.73;1.63;;;15.40;47.00;;;;;;10443671;28;20322;-73
2023/05/11 10:56:59;;;;;;;1.60;1.50;;;15.40;47.60;;;;;;10447443;28;20220;-73
2023/05/11 11:02:03;;;;;;;1.40;1.30;;;15.40;47.50;;;;;;10453325;28;20216;-73
2023/05/11 11:07:07;;;;;;;1.30;1.20;;;15.40;47.20;;;;;;10451410;28;20231;-73
2023/05/11 11:12:12;;;;;;;2.33;1.37;;;15.40;47.20;;;;;;10447308;28;20978;-73
2023/05/11 11:17:27;;;;;;;1.60;1.50;;;15.40;47.30;;;;;;10449424;28;20235;-73
2023/05/11 11:22:45;;;;;;;1.30;1.20;;;15.50;47.90;;;;;;10449863;28;20231;-73
2023/05/11 11:27:58;;;;;;;1.40;1.30;;;15.50;47.40;;;;;;10442971;28;20228;-73
2023/05/11 11:33:33;;;;;;;1.53;1.43;;;15.50;47.90;;;;;;10446146;28;20235;-73
2023/05/11 11:38:57;;;;;;;1.53;1.40;;;15.50;47.30;;;;;;10426532;28;20233;-73
2023/05/11 11:44:03;;;;;;;1.47;1.40;;;15.50;47.60;;;;;;10445227;28;20231;-73
2023/05/11 11:49:08;;;;;;;1.63;1.53;;;15.60;47.50;;;;;;10451728;28;20837;-73
2023/05/11 11:54:11;;;;;;;2.43;2.00;;;15.60;47.50;;;;;;10445307;28;20232;-73
2023/05/11 11:59:16;;;;;;;2.17;2.00;;;15.60;47.50;;;;;;10441262;28;20367;-73
2023/05/11 12:04:46;;;;;;;1.87;1.77;;;15.60;47.50;;;;;;10445285;28;20744;-73
2023/05/11 12:09:51;;;;;;;1.93;1.83;;;15.70;47.70;;;;;;10445503;28;20232;-73
2023/05/11 12:14:58;;;;;;;1.57;1.47;;;15.70;47.20;;;;;;10441067;28;20300;-73
2023/05/11 12:20:13;;;;;;;1.53;1.43;;;15.70;47.50;;;;;;10440534;28;20239;-74
2023/05/11 12:25:17;;;;;;;1.40;1.30;;;15.80;47.40;;;;;;10440514;28;20228;-73
2023/05/11 12:30:24;;;;;;;1.37;1.20;;;15.70;46.70;;;;;;10438895;28;20232;-73
2023/05/11 12:35:28;;;;;;;1.20;1.20;;;15.70;47.50;;;;;;10440028;28;20235;-73
2023/05/11 12:40:32;;;;;;;1.13;1.13;;;15.70;46.70;;;;;;10447725;28;21023;-73
2023/05/11 12:45:37;;;;;;;1.83;1.07;;;15.60;46.60;;;;;;10453706;28;20242;-73
2023/05/11 12:50:42;;;;;;;2.23;1.60;;;15.60;47.10;;;;;;10448433;28;20231;-73
2023/05/11 12:55:45;;;;;;;1.50;1.40;;;15.60;46.80;;;;;;10446685;28;20224;-73
2023/05/11 13:00:54;;;;;;;1.50;1.40;;;15.70;46.80;;;;;;10445129;28;20233;-73
2023/05/11 13:06:05;;;;;;;1.50;1.40;;;15.70;47.20;;;;;;10449156;28;20300;-73
2023/05/11 13:11:19;;;;;;;1.90;1.70;;;15.60;47.30;;;;;;10484394;28;20271;-73
2023/05/11 13:16:28;;;;;;;1.30;1.30;;;15.60;47.60;;;;;;10480113;28;20316;-71
2023/05/11 13:21:32;;;;;;;1.60;1.50;;;15.60;48.00;;;;;;10451519;28;20232;-72
2023/05/11 13:26:35;;;;;;;1.80;1.70;;;15.60;47.50;;;;;;10448283;28;20307;-72
2023/05/11 13:31:49;;;;;;;1.60;1.50;;;15.70;47.40;;;;;;10448214;28;20885;-72
2023/05/11 13:36:53;;;;;;;1.50;1.40;;;15.70;47.90;;;;;;10452302;28;20237;-72
2023/05/11 13:41:56;;;;;;;1.43;1.33;;;15.70;47.20;;;;;;10493544;28;20224;-72
2023/05/11 13:47:00;;;;;;;1.80;1.70;;;15.70;47.10;;;;;;10487036;28;20450;-72
2023/05/11 13:52:04;;;;;;;1.60;1.50;;;15.60;47.10;;;;;;10488788;28;20273;-73
2023/05/11 13:57:07;;;;;;;1.60;1.50;;;15.60;47.20;;;;;;10491017;28;20292;-73
2023/05/11 14:02:12;;;;;;;1.30;1.20;;;15.60;47.10;;;;;;10494378;28;20223;-73
2023/05/11 14:07:16;;;;;;;1.63;1.30;;;15.60;47.50;;;;;;10492552;28;20236;-73
2023/05/11 14:12:19;;;;;;;1.30;1.30;;;15.50;47.70;;;;;;10491659;28;20230;-73
2023/05/11 14:17:23;;;;;;;1.20;1.20;;;15.50;47.50;;;;;;10490555;28;20242;-73
2023/05/11 14:22:28;;;;;;;1.53;1.43;;;15.50;47.60;;;;;;10489963;28;20229;-73
2023/05/11 14:27:31;;;;;;;1.40;1.30;;;15.50;47.40;;;;;;10493729;28;20235;-73
2023/05/11 14:32:36;;;;;;;1.60;1.50;;;15.50;47.60;;;;;;10493832;28;20227;-73
2023/05/11 14:37:39;;;;;;;1.60;1.50;;;15.50;47.60;;;;;;10489143;28;20607;-73
2023/05/11 14:42:42;;;;;;;1.70;1.60;;;15.50;47.70;;;;;;10491009;28;20224;-72
2023/05/11 14:47:47;;;;;;;1.90;1.50;;;15.60;47.70;;;;;;10490424;28;20227;-73
2023/05/11 14:52:53;;;;;;;1.70;1.60;;;15.60;48.30;;;;;;10487192;28;20741;-72
2023/05/11 14:57:56;;;;;;;1.87;1.77;;;15.60;48.10;;;;;;10491068;28;20863;-73
2023/05/11 15:03:00;;;;;;;2.83;1.90;;;15.70;48.20;;;;;;10488284;28;20303;-73
2023/05/11 15:08:04;;;;;;;4.50;2.20;;;15.70;48.00;;;;;;10489289;28;20361;-73
2023/05/11 15:13:20;;;;;;;2.57;2.37;;;15.70;47.90;;;;;;10486908;28;20239;-73
2023/05/11 15:18:25;;;;;;;4.63;3.27;;;15.70;47.70;;;;;;10486158;28;20228;-73
2023/05/11 15:23:28;;;;;;;1.93;1.83;;;15.80;48.00;;;;;;10489325;28;20747;-72
2023/05/11 15:28:32;;;;;;;2.20;2.10;;;15.70;47.40;;;;;;10490017;28;20239;-72
2023/05/11 15:33:36;;;;;;;5.17;4.70;;;15.70;47.50;;;;;;10491112;28;20235;-72
2023/05/11 15:38:39;;;;;;;5.87;5.27;;;15.70;47.80;;;;;;10489749;28;20256;-72
2023/05/11 15:43:43;;;;;;;5.63;4.97;;;15.60;47.50;;;;;;10461872;28;20221;-72
2023/05/11 15:48:47;;;;;;;2.77;2.57;;;15.60;47.60;;;;;;10450948;28;20220;-72
2023/05/11 15:53:51;;;;;;;2.67;2.30;;;15.50;47.70;;;;;;10449344;28;20813;-72
2023/05/11 15:58:54;;;;;;;2.10;2.00;;;15.50;47.60;;;;;;10444682;28;20231;-73
2023/05/11 16:04:00;;;;;;;2.77;2.40;;;15.40;47.50;;;;;;10444744;28;20290;-73
2023/05/11 16:09:04;;;;;;;2.30;2.20;;;15.40;48.10;;;;;;10440520;28;20692;-73
2023/05/11 16:14:07;;;;;;;2.33;2.20;;;15.40;48.10;;;;;;10446819;28;20810;-73
2023/05/11 16:19:12;;;;;;;2.23;2.13;;;15.50;48.20;;;;;;10444917;28;20233;-72
2023/05/11 16:24:15;;;;;;;1.87;1.77;;;15.50;48.10;;;;;;10448411;28;20220;-73
2023/05/11 16:29:18;;;;;;;2.00;1.90;;;15.50;47.90;;;;;;10443777;28;20767;-72
2023/05/11 16:34:23;;;;;;;2.23;2.00;;;15.50;48.10;;;;;;10442213;28;20247;-73
2023/05/11 16:39:26;;;;;;;2.03;1.93;;;15.50;48.00;;;;;;10443465;28;20235;-72
2023/05/11 16:44:29;;;;;;;2.03;1.87;;;15.50;47.70;;;;;;10441145;28;20225;-72
2023/05/11 16:49:34;;;;;;;1.90;1.80;;;15.50;47.90;;;;;;10443670;28;20236;-73
2023/05/11 16:54:37;;;;;;;2.67;2.13;;;15.50;48.30;;;;;;10448172;28;20239;-72
2023/05/11 16:59:40;;;;;;;1.70;1.60;;;15.50;47.60;;;;;;10445967;28;21049;-72
2023/05/11 17:04:45;;;;;;;1.20;1.20;;;15.50;47.50;;;;;;10445519;28;20231;-72
2023/05/11 17:09:50;;;;;;;1.20;1.20;;;15.50;47.00;;;;;;10445283;28;20716;-72
2023/05/11 17:14:54;;;;;;;1.50;1.40;;;15.40;46.90;;;;;;10462514;28;20268;-72
2023/05/11 17:19:58;;;;;;;1.30;1.30;;;15.40;46.90;;;;;;10488100;28;20235;-72
2023/05/11 17:25:02;;;;;;;2.20;2.10;;;15.40;47.00;;;;;;10490187;28;20220;-72
2023/05/11 17:30:07;;;;;;;1.60;1.50;;;15.30;47.10;;;;;;10498142;28;20722;-73
2023/05/11 17:35:12;;;;;;;1.50;1.40;;;15.30;47.40;;;;;;10499398;28;20837;-73
2023/05/11 17:40:15;;;;;;;1.20;1.10;;;15.40;47.40;;;;;;10494427;28;20297;-74
2023/05/11 17:45:19;;;;;;;1.00;1.00;;;15.40;47.10;;;;;;10495704;28;20718;-74
2023/05/11 17:50:24;;;;;;;2.33;1.70;;;15.30;47.10;;;;;;10493422;28;20695;-73
2023/05/11 17:55:27;;;;;;;1.60;1.50;;;15.40;47.60;;;;;;10491494;28;20231;-74
2023/05/11 18:00:31;;;;;;;1.40;1.30;;;15.40;47.40;;;;;;10493101;28;20247;-74
2023/05/11 18:05:36;;;;;;;1.00;1.00;;;15.40;47.30;;;;;;10471127;28;20251;-75
2023/05/11 18:10:51;;;;;;;1.10;1.10;;;15.50;47.60;;;;;;10468265;28;20223;-75
2023/05/11 18:15:56;;;;;;;2.73;1.60;;;15.50;47.40;;;;;;10457934;28;20224;-75
2023/05/11 18:21:06;;;;;;;1.80;1.70;;;15.50;47.40;;;;;;10459284;28;20994;-74
2023/05/11 18:26:10;;;;;;;1.27;1.23;;;15.60;47.90;;;;;;10454290;28;20483;-72
2023/05/11 18:31:13;;;;;;;1.37;1.27;;;15.60;47.20;;;;;;10454387;28;20231;-73
2023/05/11 18:36:18;;;;;;;1.23;1.13;;;15.60;47.40;;;;;;10450825;28;20319;-70
2023/05/11 18:41:21;;;;;;;1.50;1.40;;;15.60;47.60;;;;;;10465182;28;20242;-71
2023/05/11 18:46:24;;;;;;;2.10;1.70;;;15.60;47.40;;;;;;10451475;28;20751;-71
2023/05/11 18:51:30;;;;;;;2.83;1.67;;;15.70;47.40;;;;;;10467611;28;20714;-72
2023/05/11 18:56:33;;;;;;;1.70;1.60;;;15.70;47.40;;;;;;10453163;28;20217;-72
2023/05/11 19:01:36;;;;;;;2.33;1.30;;;15.70;47.20;;;;;;10453728;28;20232;-71
2023/05/11 19:06:51;;;;;;;1.40;1.30;;;15.70;47.30;;;;;;10461561;28;20311;-72
2023/05/11 19:11:54;;;;;;;1.43;1.20;;;15.70;47.50;;;;;;10449964;28;20231;-72
2023/05/11 19:16:57;;;;;;;0.83;0.83;;;15.70;47.80;;;;;;10450608;28;20240;-71
2023/05/11 19:22:02;;;;;;;0.90;0.90;;;15.70;47.10;;;;;;10453571;28;20225;-71
2023/05/11 19:27:06;;;;;;;0.80;0.80;;;15.70;47.00;;;;;;10450943;28;20229;-72
2023/05/11 19:32:10;;;;;;;0.93;0.80;;;15.60;46.80;;;;;;10449800;28;20341;-72
2023/05/11 19:37:15;;;;;;;0.90;0.90;;;15.60;46.80;;;;;;10450886;28;20275;-72
2023/05/11 19:42:19;;;;;;;1.00;1.00;;;15.60;46.80;;;;;;10445108;28;20217;-72
2023/05/11 19:47:34;;;;;;;0.90;0.90;;;15.60;46.70;;;;;;10448086;28;20315;-71
2023/05/11 19:52:39;;;;;;;1.00;1.00;;;15.60;46.70;;;;;;10458143;28;20230;-72
2023/05/11 19:57:42;;;;;;;1.00;1.00;;;15.60;46.70;;;;;;10468834;28;20228;-71
2023/05/11 20:02:45;;;;;;;2.83;1.20;;;15.60;46.70;;;;;;10453749;28;20228;-71
2023/05/11 20:07:50;;;;;;;1.10;1.10;;;15.60;46.70;;;;;;10454852;28;20233;-70
2023/05/11 20:12:53;;;;;;;1.20;1.20;;;15.60;46.80;;;;;;10454617;28;20229;-71
2023/05/11 20:17:57;;;;;;;2.40;1.33;;;15.60;46.80;;;;;;10450214;28;20255;-70
2023/05/11 20:23:02;;;;;;;1.43;1.30;;;15.60;46.80;;;;;;10451968;28;20355;-70
2023/05/11 20:28:05;;;;;;;1.60;1.50;;;15.60;47.00;;;;;;10449396;28;20224;-70
2023/05/11 20:33:08;;;;;;;1.57;1.20;;;15.60;46.80;;;;;;10466720;28;20266;-70
2023/05/11 20:38:16;;;;;;;1.27;1.20;;;15.50;46.80;;;;;;10451040;28;20959;-70
2023/05/11 20:43:19;;;;;;;1.20;1.20;;;15.50;46.90;;;;;;10447272;28;20780;-70
2023/05/11 20:48:23;;;;;;;1.47;1.27;;;15.50;46.90;;;;;;10450992;28;20224;-69
2023/05/11 20:53:42;;;;;;;1.33;1.10;;;15.50;47.10;;;;;;10447975;28;20261;-70
2023/05/11 20:58:46;;;;;;;1.00;1.00;;;15.50;47.20;;;;;;10451173;28;21078;-70
2023/05/11 21:03:50;;;;;;;1.10;1.10;;;15.50;47.10;;;;;;10462394;28;20582;-72
2023/05/11 21:08:55;;;;;;;1.60;1.10;;;15.50;46.70;;;;;;10457770;28;20634;-70
2023/05/11 21:13:58;;;;;;;1.27;1.27;;;15.50;46.80;;;;;;10463917;28;20231;-71
2023/05/11 21:19:01;;;;;;;2.17;1.27;;;15.40;46.60;;;;;;10461043;28;20231;-71
2023/05/11 21:24:06;;;;;;;1.57;1.47;;;15.40;46.80;;;;;;10477644;28;20220;-71
2023/05/11 21:29:11;;;;;;;1.40;1.40;;;15.40;47.00;;;;;;10500512;28;20231;-71
2023/05/11 21:34:14;;;;;;;1.73;1.63;;;15.40;47.00;;;;;;10497170;28;20227;-71
2023/05/11 21:39:18;;;;;;;1.70;1.60;;;15.40;47.10;;;;;;10500887;28;20227;-71
2023/05/11 21:44:21;;;;;;;1.30;1.20;;;15.40;47.30;;;;;;10501618;28;20342;-71
2023/05/11 21:49:25;;;;;;;1.80;1.70;;;15.40;47.20;;;;;;10473831;28;20236;-71
2023/05/11 21:54:29;;;;;;;2.20;2.00;;;15.40;47.20;;;;;;10461618;28;20843;-71
2023/05/11 21:59:32;;;;;;;2.80;2.60;;;15.40;47.30;;;;;;10499256;28;20234;-71
2023/05/11 22:04:35;;;;;;;2.70;2.60;;;15.40;47.30;;;;;;10500104;28;20250;-71
2023/05/11 22:09:40;;;;;;;4.20;3.90;;;15.40;47.30;;;;;;10492274;28;20254;-71
2023/05/11 22:14:43;;;;;;;4.30;4.00;;;15.40;47.50;;;;;;10496557;28;20231;-71
2023/05/11 22:19:46;;;;;;;5.67;5.07;;;15.40;47.30;;;;;;10490164;28;20239;-71
2023/05/11 22:24:50;;;;;;;4.20;3.90;;;15.40;47.40;;;;;;10494936;28;20224;-71
2023/05/11 22:29:54;;;;;;;5.20;4.80;;;15.30;47.40;;;;;;10472073;28;20286;-71
2023/05/11 22:34:57;;;;;;;5.37;4.93;;;15.30;47.20;;;;;;10456783;28;20232;-71
2023/05/11 22:40:04;;;;;;;5.33;4.93;;;15.30;47.20;;;;;;10459776;28;20315;-71
2023/05/11 22:45:08;;;;;;;5.53;5.13;;;15.30;47.50;;;;;;10457455;28;20225;-72
2023/05/11 22:50:11;;;;;;;5.07;4.67;;;15.30;47.60;;;;;;10455125;28;20262;-71
2023/05/11 22:55:16;;;;;;;5.70;5.30;;;15.20;47.30;;;;;;10454754;28;20228;-71
2023/05/11 23:00:20;;;;;;;5.43;5.03;;;15.20;47.70;;;;;;10452831;28;20698;-71
2023/05/11 23:05:23;;;;;;;5.80;5.33;;;15.20;47.50;;;;;;10456131;28;20232;-71
2023/05/11 23:10:28;;;;;;;5.77;5.37;;;15.20;47.40;;;;;;10454860;28;20236;-71
2023/05/11 23:15:32;;;;;;;5.27;4.87;;;15.20;47.80;;;;;;10455024;28;20239;-71
2023/05/11 23:20:35;;;;;;;5.60;5.20;;;15.20;47.60;;;;;;10455221;28;20285;-71
2023/05/11 23:25:40;;;;;;;5.60;5.20;;;15.20;47.50;;;;;;10454359;28;20597;-71
2023/05/11 23:30:44;;;;;;;5.23;4.80;;;15.20;47.80;;;;;;10451945;28;20324;-71
2023/05/11 23:35:47;;;;;;;5.73;5.23;;;15.20;47.70;;;;;;10455268;28;20228;-71
2023/05/11 23:40:52;;;;;;;5.50;5.10;;;15.20;47.80;;;;;;10456489;28;20236;-70
2023/05/11 23:45:56;;;;;;;5.17;4.87;;;15.20;47.80;;;;;;10455703;28;20227;-71
2023/05/11 23:50:59;;;;;;;6.23;5.67;;;15.20;47.80;;;;;;10453443;28;20233;-70
2023/05/11 23:56:04;;;;;;;6.17;5.70;;;15.30;47.90;;;;;;10457891;28;20243;-72
